createdAt,value
2018-09-29T00:00:51.594Z,100.00
2018-09-29T00:03:23.640Z,100.00
2018-09-29T00:05:55.750Z,100.00
2018-09-29T00:08:27.790Z,100.00
2018-09-29T00:10:59.837Z,100.00
2018-09-29T00:13:31.918Z,100.00
2018-09-29T00:16:03.985Z,100.00
2018-09-29T00:18:36.086Z,100.00
2018-09-29T00:21:08.172Z,100.00
2018-09-29T00:23:40.203Z,100.00
2018-09-29T00:26:12.248Z,100.00
2018-09-29T00:28:44.319Z,100.00
2018-09-29T00:31:16.389Z,100.00
2018-09-29T00:33:48.420Z,100.00
2018-09-29T00:36:20.446Z,100.00
2018-09-29T00:38:52.491Z,100.00
2018-09-29T00:41:24.579Z,100.00
2018-09-29T00:43:56.662Z,100.00
2018-09-29T00:46:28.736Z,100.00
2018-09-29T00:49:00.805Z,100.00
2018-09-29T00:51:32.866Z,100.00
2018-09-29T00:54:04.937Z,100.00
2018-09-29T00:56:36.984Z,100.00
2018-09-29T00:59:09.072Z,100.00
2018-09-29T01:01:41.160Z,100.00
2018-09-29T01:04:13.212Z,100.00
2018-09-29T01:06:45.263Z,100.00
2018-09-29T01:09:17.311Z,100.00
2018-09-29T01:11:49.361Z,100.00
2018-09-29T01:14:21.441Z,100.00
2018-09-29T01:16:53.832Z,100.00
2018-09-29T01:19:25.879Z,100.00
2018-09-29T01:21:57.940Z,100.00
2018-09-29T01:24:30.020Z,100.00
2018-09-29T01:27:02.115Z,100.00
2018-09-29T01:29:34.163Z,100.00
2018-09-29T01:32:06.215Z,100.00
2018-09-29T01:34:38.268Z,100.00
2018-09-29T01:37:10.311Z,100.00
2018-09-29T01:39:42.367Z,100.00
2018-09-29T01:42:14.410Z,100.00
2018-09-29T01:44:46.458Z,100.00
2018-09-29T01:47:18.472Z,100.00
2018-09-29T01:49:50.508Z,100.00
2018-09-29T01:52:22.528Z,100.00
2018-09-29T01:54:54.549Z,100.00
2018-09-29T01:57:26.583Z,100.00
2018-09-29T01:59:58.675Z,100.00
2018-09-29T02:02:30.728Z,100.00
2018-09-29T02:05:02.814Z,100.00
2018-09-29T02:07:34.818Z,100.00
2018-09-29T02:10:06.933Z,100.00
2018-09-29T02:12:38.962Z,100.00
2018-09-29T02:15:11.008Z,100.00
2018-09-29T02:17:43.039Z,100.00
2018-09-29T02:20:15.147Z,100.00
2018-09-29T02:22:47.225Z,100.00
2018-09-29T02:25:19.247Z,100.00
2018-09-29T02:27:51.342Z,100.00
2018-09-29T02:30:23.390Z,100.00
2018-09-29T02:32:55.414Z,100.00
2018-09-29T02:35:27.428Z,100.00
2018-09-29T02:37:59.483Z,100.00
2018-09-29T02:40:31.560Z,100.00
2018-09-29T02:43:03.640Z,100.00
2018-09-29T02:45:35.684Z,100.00
2018-09-29T02:48:07.735Z,100.00
2018-09-29T02:50:39.783Z,100.00
2018-09-29T02:53:11.808Z,100.00
2018-09-29T02:55:43.849Z,100.00
2018-09-29T02:58:15.866Z,100.00
2018-09-29T03:00:47.922Z,100.00
2018-09-29T03:03:19.963Z,100.00
2018-09-29T03:05:52.009Z,100.00
2018-09-29T03:08:24.114Z,100.00
2018-09-29T03:10:56.141Z,100.00
2018-09-29T03:13:28.176Z,100.00
2018-09-29T03:16:00.188Z,100.00
2018-09-29T03:18:32.247Z,100.00
2018-09-29T03:21:04.301Z,100.00
2018-09-29T03:23:36.404Z,100.00
2018-09-29T03:26:08.430Z,100.00
2018-09-29T03:28:40.510Z,100.00
2018-09-29T03:31:12.555Z,100.00
2018-09-29T03:33:44.605Z,100.00
2018-09-29T03:36:16.657Z,100.00
2018-09-29T03:38:48.764Z,100.00
2018-09-29T03:41:20.815Z,100.00
2018-09-29T03:43:52.875Z,100.00
2018-09-29T03:46:24.956Z,100.00
2018-09-29T03:48:57.176Z,100.00
2018-09-29T03:51:29.181Z,100.00
2018-09-29T03:54:01.251Z,100.00
2018-09-29T03:56:33.316Z,100.00
2018-09-29T03:59:05.456Z,100.00
2018-09-29T04:01:37.503Z,100.00
2018-09-29T04:04:09.535Z,100.00
2018-09-29T04:06:41.583Z,100.00
2018-09-29T04:09:13.639Z,100.00
2018-09-29T04:11:45.679Z,100.00
2018-09-29T04:14:17.711Z,100.00
2018-09-29T04:16:49.723Z,100.00
2018-09-29T04:19:21.771Z,100.00
2018-09-29T04:21:53.809Z,100.00
2018-09-29T04:24:25.827Z,100.00
2018-09-29T04:26:57.856Z,100.00
2018-09-29T04:29:29.902Z,100.00
2018-09-29T04:32:01.900Z,100.00
2018-09-29T04:34:33.907Z,100.00
2018-09-29T04:37:05.952Z,100.00
2018-09-29T04:39:38.057Z,100.00
2018-09-29T04:42:10.126Z,100.00
2018-09-29T04:44:42.161Z,100.00
2018-09-29T04:47:14.224Z,100.00
2018-09-29T04:49:46.275Z,100.00
2018-09-29T04:52:18.332Z,100.00
2018-09-29T04:54:50.409Z,100.00
2018-09-29T04:57:22.448Z,100.00
2018-09-29T04:59:54.505Z,100.00
2018-09-29T05:02:26.549Z,100.00
2018-09-29T05:04:58.622Z,100.00
2018-09-29T05:07:30.692Z,100.00
2018-09-29T05:10:02.815Z,100.00
2018-09-29T05:12:34.864Z,100.00
2018-09-29T05:15:06.925Z,100.00
2018-09-29T05:17:39.036Z,100.00
2018-09-29T05:20:11.114Z,100.00
2018-09-29T05:22:43.167Z,100.00
2018-09-29T05:25:15.395Z,100.00
2018-09-29T05:27:47.459Z,100.00
2018-09-29T05:30:19.539Z,100.00
2018-09-29T05:32:51.589Z,100.00
2018-09-29T05:35:23.737Z,100.00
2018-09-29T05:37:55.834Z,100.00
2018-09-29T05:40:27.929Z,100.00
2018-09-29T05:42:59.971Z,100.00
2018-09-29T05:45:32.016Z,100.00
2018-09-29T05:48:04.076Z,100.00
2018-09-29T05:50:36.159Z,100.00
2018-09-29T05:53:08.212Z,100.00
2018-09-29T05:55:40.305Z,100.00
2018-09-29T05:58:12.405Z,100.00
2018-09-29T06:00:44.594Z,100.00
2018-09-29T06:03:16.489Z,100.00
2018-09-29T06:05:48.620Z,100.00
2018-09-29T06:08:20.651Z,100.00
2018-09-29T06:10:52.720Z,100.00
2018-09-29T06:13:24.844Z,100.00
2018-09-29T06:15:56.974Z,100.00
2018-09-29T06:18:29.023Z,100.00
2018-09-29T06:21:01.168Z,100.00
2018-09-29T06:23:33.124Z,100.00
2018-09-29T06:26:05.264Z,100.00
2018-09-29T06:28:37.307Z,100.00
2018-09-29T06:31:09.356Z,100.00
2018-09-29T06:33:41.614Z,100.00
2018-09-29T06:36:13.712Z,100.00
2018-09-29T06:38:45.750Z,100.00
2018-09-29T06:41:17.803Z,100.00
2018-09-29T06:43:49.871Z,100.00
2018-09-29T06:46:21.934Z,100.00
2018-09-29T06:48:53.984Z,100.00
2018-09-29T06:51:26.124Z,100.00
2018-09-29T06:53:58.191Z,100.00
2018-09-29T06:56:30.246Z,100.00
2018-09-29T06:59:02.321Z,100.00
2018-09-29T07:01:34.385Z,98.44
2018-09-29T07:04:06.452Z,98.23
2018-09-29T07:06:38.501Z,91.00
2018-09-29T07:09:11.847Z,82.12
2018-09-29T07:11:45.180Z,74.85
2018-09-29T07:14:17.243Z,69.37
2018-09-29T07:16:49.337Z,64.99
2018-09-29T07:19:21.374Z,56.69
2018-09-29T07:21:55.434Z,52.81
2018-09-29T07:24:27.482Z,48.24
2018-09-29T07:26:59.568Z,47.04
2018-09-29T07:29:31.635Z,45.45
2018-09-29T07:32:03.916Z,45.40
2018-09-29T07:34:36.062Z,43.67
2018-09-29T07:37:08.138Z,42.16
2018-09-29T07:39:40.240Z,45.86
2018-09-29T07:42:12.352Z,41.53
2018-09-29T07:44:44.495Z,42.85
2018-09-29T07:47:16.503Z,41.79
2018-09-29T07:49:48.585Z,40.01
2018-09-29T07:52:20.658Z,41.58
2018-09-29T07:54:52.762Z,40.70
2018-09-29T07:57:24.795Z,40.42
2018-09-29T07:59:56.938Z,41.38
2018-09-29T08:02:29.015Z,39.35
2018-09-29T08:05:01.056Z,39.84
2018-09-29T08:07:33.215Z,40.22
2018-09-29T08:10:05.368Z,39.30
2018-09-29T08:12:37.489Z,38.44
2018-09-29T08:15:09.553Z,40.44
2018-09-29T08:17:41.612Z,38.65
2018-09-29T08:20:13.666Z,40.28
2018-09-29T08:22:45.800Z,38.45
2018-09-29T08:25:17.868Z,38.39
2018-09-29T08:27:49.994Z,37.87
2018-09-29T08:30:22.081Z,38.64
2018-09-29T08:32:54.143Z,37.51
2018-09-29T08:38:14.209Z,38.57
2018-09-29T08:40:46.347Z,39.62
2018-09-29T08:43:18.453Z,38.48
2018-09-29T08:45:50.484Z,39.41
2018-09-29T08:48:22.497Z,38.77
2018-09-29T08:50:54.564Z,39.31
2018-09-29T08:53:26.662Z,38.90
2018-09-29T08:55:58.704Z,38.29
2018-09-29T08:58:30.768Z,38.54
2018-09-29T09:01:02.824Z,38.12
2018-09-29T09:03:34.868Z,38.13
2018-09-29T09:06:06.947Z,37.47
2018-09-29T09:08:38.996Z,38.35
2018-09-29T09:11:11.153Z,38.40
2018-09-29T09:13:43.226Z,39.13
2018-09-29T09:16:15.290Z,40.18
2018-09-29T09:18:47.369Z,39.59
2018-09-29T09:21:19.442Z,38.76
2018-09-29T09:23:51.542Z,38.95
2018-09-29T09:26:23.627Z,39.32
2018-09-29T09:28:55.747Z,37.61
2018-09-29T09:31:27.876Z,37.38
2018-09-29T09:33:59.965Z,38.35
2018-09-29T09:36:32.036Z,37.74
2018-09-29T09:39:07.798Z,38.41
2018-09-29T09:41:40.114Z,36.86
2018-09-29T09:44:12.206Z,37.65
2018-09-29T09:46:44.328Z,38.34
2018-09-29T09:49:16.440Z,39.69
2018-09-29T09:51:49.270Z,39.11
2018-09-29T09:54:21.304Z,40.88
2018-09-29T09:56:53.390Z,42.48
2018-09-29T09:59:25.491Z,42.32
2018-09-29T10:02:03.244Z,42.89
2018-09-29T10:04:36.312Z,44.58
2018-09-29T10:07:08.372Z,43.53
2018-09-29T10:09:40.438Z,42.49
2018-09-29T10:12:12.534Z,45.02
2018-09-29T10:14:44.688Z,42.49
2018-09-29T10:17:16.730Z,42.89
2018-09-29T10:19:48.776Z,42.63
2018-09-29T10:22:21.296Z,43.38
2018-09-29T10:24:53.349Z,44.72
2018-09-29T10:27:25.408Z,42.58
2018-09-29T10:29:57.452Z,42.66
2018-09-29T10:32:29.491Z,44.01
2018-09-29T10:35:01.561Z,45.79
2018-09-29T10:37:33.607Z,43.21
2018-09-29T10:40:05.791Z,42.99
2018-09-29T10:42:37.868Z,43.53
2018-09-29T10:45:09.975Z,41.42
2018-09-29T10:47:42.132Z,40.20
2018-09-29T10:50:14.200Z,42.89
2018-09-29T10:52:46.219Z,41.13
2018-09-29T10:55:18.320Z,40.89
2018-09-29T10:57:50.372Z,40.96
2018-09-29T11:00:22.411Z,41.70
2018-09-29T11:02:54.649Z,40.03
2018-09-29T11:05:26.775Z,39.74
2018-09-29T11:07:59.085Z,39.84
2018-09-29T11:10:31.128Z,41.77
2018-09-29T11:13:03.194Z,39.56
2018-09-29T11:15:35.362Z,38.64
2018-09-29T11:18:07.386Z,37.11
2018-09-29T11:20:39.574Z,37.31
2018-09-29T11:23:11.628Z,38.10
2018-09-29T11:25:43.686Z,37.17
2018-09-29T11:28:15.936Z,36.62
2018-09-29T11:30:48.379Z,36.53
2018-09-29T11:33:20.467Z,37.53
2018-09-29T11:35:52.545Z,38.35
2018-09-29T11:38:25.152Z,38.12
2018-09-29T11:40:57.284Z,39.84
2018-09-29T11:43:29.315Z,37.12
2018-09-29T11:46:01.431Z,37.35
2018-09-29T11:48:33.528Z,39.04
2018-09-29T11:51:05.811Z,39.27
2018-09-29T11:53:37.878Z,37.39
2018-09-29T11:56:09.971Z,35.93
2018-09-29T11:58:41.976Z,35.44
2018-09-29T12:01:14.260Z,37.63
2018-09-29T12:03:46.411Z,36.49
2018-09-29T12:06:18.570Z,36.12
2018-09-29T12:08:50.531Z,36.46
2018-09-29T12:11:22.711Z,38.33
2018-09-29T12:13:54.814Z,37.72
2018-09-29T12:16:26.936Z,36.16
2018-09-29T12:18:59.200Z,37.06
2018-09-29T12:21:31.274Z,36.35
2018-09-29T12:24:03.321Z,34.58
2018-09-29T12:26:35.441Z,34.93
2018-09-29T12:29:07.483Z,35.43
2018-09-29T12:31:39.545Z,36.04
2018-09-29T12:34:11.687Z,34.77
2018-09-29T12:36:43.789Z,35.96
2018-09-29T12:39:15.907Z,36.75
2018-09-29T12:41:47.942Z,34.93
2018-09-29T12:44:19.996Z,35.05
2018-09-29T12:46:52.326Z,35.74
2018-09-29T12:49:24.419Z,35.82
2018-09-29T12:51:56.530Z,37.92
2018-09-29T12:54:28.771Z,37.84
2018-09-29T12:57:00.932Z,37.37
2018-09-29T12:59:33.060Z,35.66
2018-09-29T13:02:05.179Z,35.86
2018-09-29T13:04:37.248Z,35.46
2018-09-29T13:07:09.324Z,34.78
2018-09-29T13:09:41.475Z,33.50
2018-09-29T13:12:13.592Z,33.51
2018-09-29T13:14:45.676Z,32.59
2018-09-29T13:17:17.755Z,33.36
2018-09-29T13:19:49.807Z,33.17
2018-09-29T13:22:21.838Z,31.32
2018-09-29T13:24:53.877Z,33.00
2018-09-29T13:27:25.914Z,30.50
2018-09-29T13:29:57.975Z,29.00
2018-09-29T13:32:30.125Z,29.06
2018-09-29T13:35:02.183Z,30.60
2018-09-29T13:37:34.274Z,29.61
2018-09-29T13:40:06.572Z,28.37
2018-09-29T13:42:38.702Z,27.99
2018-09-29T13:45:10.723Z,27.33
2018-09-29T13:47:42.773Z,28.89
2018-09-29T13:50:14.876Z,28.72
2018-09-29T13:52:46.977Z,28.64
2018-09-29T13:55:19.047Z,27.12
2018-09-29T13:57:51.104Z,26.52
2018-09-29T14:00:23.158Z,26.53
2018-09-29T14:02:55.212Z,27.34
2018-09-29T14:05:27.341Z,26.06
2018-09-29T14:07:59.383Z,28.16
2018-09-29T14:10:31.416Z,26.52
2018-09-29T14:13:03.493Z,26.10
2018-09-29T14:15:35.651Z,27.24
2018-09-29T14:18:07.788Z,28.00
2018-09-29T14:20:39.936Z,26.43
2018-09-29T14:23:11.980Z,25.91
2018-09-29T14:25:44.024Z,25.22
2018-09-29T14:28:16.183Z,26.11
2018-09-29T14:30:48.262Z,26.74
2018-09-29T14:33:20.408Z,26.67
2018-09-29T14:35:52.464Z,24.62
2018-09-29T14:38:24.576Z,25.09
2018-09-29T14:40:56.706Z,25.80
2018-09-29T14:43:28.853Z,25.09
2018-09-29T14:46:00.896Z,26.58
2018-09-29T14:48:32.971Z,27.68
2018-09-29T14:51:05.090Z,26.93
2018-09-29T14:53:39.121Z,28.26
2018-09-29T14:56:11.197Z,30.46
2018-09-29T14:58:43.336Z,32.41
2018-09-29T15:01:15.404Z,34.98
2018-09-29T15:03:47.442Z,34.39
2018-09-29T15:06:19.465Z,34.88
2018-09-29T15:08:51.559Z,34.58
2018-09-29T15:11:23.678Z,36.19
2018-09-29T15:13:55.880Z,38.31
2018-09-29T15:16:28.076Z,40.44
2018-09-29T15:19:00.159Z,39.65
2018-09-29T15:21:32.249Z,40.89
2018-09-29T15:24:04.313Z,40.27
2018-09-29T15:26:36.360Z,41.48
2018-09-29T15:29:08.462Z,42.35
2018-09-29T15:31:40.524Z,42.46
2018-09-29T15:34:12.590Z,42.94
2018-09-29T15:36:45.175Z,42.32
2018-09-29T15:39:17.251Z,42.29
2018-09-29T15:41:49.312Z,45.05
2018-09-29T15:44:21.416Z,44.05
2018-09-29T15:46:53.513Z,44.41
2018-09-29T15:49:25.717Z,43.54
2018-09-29T15:51:58.421Z,42.90
2018-09-29T15:54:30.544Z,43.62
2018-09-29T15:57:02.579Z,43.95
2018-09-29T15:59:34.676Z,44.27
2018-09-29T16:02:06.752Z,45.12
2018-09-29T16:04:38.815Z,47.49
2018-09-29T16:07:10.993Z,45.79
2018-09-29T16:09:47.978Z,45.50
2018-09-29T16:12:20.213Z,47.69
2018-09-29T16:14:52.288Z,50.16
2018-09-29T16:17:24.450Z,48.78
2018-09-29T16:19:56.583Z,49.31
2018-09-29T16:22:28.656Z,48.00
2018-09-29T16:25:00.784Z,47.98
2018-09-29T16:27:33.422Z,50.22
2018-09-29T16:30:05.903Z,51.33
2018-09-29T16:32:37.943Z,49.74
2018-09-29T16:35:10.019Z,50.31
2018-09-29T16:37:42.046Z,51.04
2018-09-29T16:40:14.131Z,53.07
2018-09-29T16:42:46.204Z,52.41
2018-09-29T16:45:18.268Z,54.08
2018-09-29T16:47:50.892Z,55.37
2018-09-29T16:50:22.986Z,56.49
2018-09-29T16:52:55.053Z,59.34
2018-09-29T16:55:27.128Z,59.90
2018-09-29T16:57:59.209Z,58.68
2018-09-29T17:00:31.271Z,58.94
2018-09-29T17:03:04.362Z,61.73
2018-09-29T17:05:36.416Z,64.60
2018-09-29T17:08:08.470Z,65.77
2018-09-29T17:10:40.541Z,69.64
2018-09-29T17:13:12.634Z,71.85
2018-09-29T17:15:44.696Z,71.34
2018-09-29T17:18:16.727Z,68.75
2018-09-29T17:20:48.822Z,71.32
2018-09-29T17:23:20.950Z,72.09
2018-09-29T17:25:53.098Z,70.00
2018-09-29T17:28:26.155Z,70.50
2018-09-29T17:30:58.218Z,73.71
2018-09-29T17:33:30.327Z,73.24
2018-09-29T17:36:02.417Z,75.06
2018-09-29T17:38:35.141Z,77.16
2018-09-29T17:41:07.231Z,78.93
2018-09-29T17:43:39.299Z,78.87
2018-09-29T17:46:11.346Z,77.90
2018-09-29T17:48:43.544Z,81.76
2018-09-29T17:51:15.629Z,84.42
2018-09-29T17:53:47.938Z,81.73
2018-09-29T17:56:20.083Z,84.24
2018-09-29T17:58:52.187Z,81.80
2018-09-29T18:01:24.328Z,87.79
2018-09-29T18:03:56.422Z,88.70
2018-09-29T18:06:28.484Z,93.51
2018-09-29T18:09:00.600Z,94.56
2018-09-29T18:11:32.871Z,94.52
2018-09-29T18:14:04.987Z,95.72
2018-09-29T18:16:37.063Z,98.31
2018-09-29T18:19:09.155Z,98.59
2018-09-29T18:21:41.237Z,97.16
2018-09-29T18:24:13.339Z,97.72
2018-09-29T18:26:45.420Z,98.36
2018-09-29T18:29:17.571Z,99.35
2018-09-29T18:31:49.611Z,97.70
2018-09-29T18:34:21.641Z,100.00
2018-09-29T18:36:53.730Z,100.00
2018-09-29T18:39:25.888Z,98.74
2018-09-29T18:41:57.955Z,100.00
2018-09-29T18:44:30.047Z,100.00
2018-09-29T18:47:02.133Z,100.00
2018-09-29T18:49:34.224Z,100.00
2018-09-29T18:52:06.337Z,100.00
2018-09-29T18:54:38.400Z,100.00
2018-09-29T18:57:10.461Z,100.00
2018-09-29T18:59:42.559Z,100.00
2018-09-29T19:02:14.629Z,100.00
2018-09-29T19:04:46.747Z,100.00
2018-09-29T19:07:19.953Z,100.00
2018-09-29T19:09:52.028Z,100.00
2018-09-29T19:12:24.087Z,100.00
2018-09-29T19:14:56.136Z,100.00
2018-09-29T19:17:28.223Z,100.00
2018-09-29T19:20:00.314Z,100.00
2018-09-29T19:22:32.376Z,100.00
2018-09-29T19:25:04.499Z,100.00
2018-09-29T19:27:36.567Z,100.00
2018-09-29T19:30:08.628Z,100.00
2018-09-29T19:32:40.704Z,100.00
2018-09-29T19:35:12.815Z,100.00
2018-09-29T19:37:44.939Z,100.00
2018-09-29T19:40:16.988Z,100.00
2018-09-29T19:42:49.068Z,100.00
2018-09-29T19:45:21.165Z,100.00
2018-09-29T19:47:54.271Z,100.00
2018-09-29T19:50:26.323Z,100.00
2018-09-29T19:52:58.356Z,100.00
2018-09-29T19:55:30.400Z,100.00
2018-09-29T19:58:02.453Z,100.00
2018-09-29T20:00:34.515Z,100.00
2018-09-29T20:03:06.586Z,100.00
2018-09-29T20:05:38.916Z,100.00
2018-09-29T20:08:10.992Z,100.00
2018-09-29T20:10:43.028Z,100.00
2018-09-29T20:13:15.096Z,100.00
2018-09-29T20:15:47.164Z,100.00
2018-09-29T20:18:19.192Z,100.00
2018-09-29T20:20:51.316Z,100.00
2018-09-29T20:23:23.368Z,100.00
2018-09-29T20:25:55.446Z,100.00
2018-09-29T20:28:27.567Z,100.00
2018-09-29T20:30:59.635Z,100.00
2018-09-29T20:33:31.725Z,100.00
2018-09-29T20:36:03.808Z,100.00
2018-09-29T20:38:35.864Z,100.00
2018-09-29T20:41:07.943Z,100.00
2018-09-29T20:43:40.085Z,100.00
2018-09-29T20:46:12.127Z,100.00
2018-09-29T20:48:44.187Z,100.00
2018-09-29T20:51:16.219Z,100.00
2018-09-29T20:53:48.388Z,100.00
2018-09-29T20:56:20.412Z,100.00
2018-09-29T20:58:52.439Z,100.00
2018-09-29T21:01:24.467Z,100.00
2018-09-29T21:03:56.507Z,100.00
2018-09-29T21:06:28.540Z,100.00
2018-09-29T21:09:00.608Z,100.00
2018-09-29T21:11:32.618Z,100.00
2018-09-29T21:14:04.735Z,100.00
2018-09-29T21:16:36.777Z,100.00
2018-09-29T21:19:08.827Z,100.00
2018-09-29T21:21:40.952Z,100.00
2018-09-29T21:24:12.968Z,100.00
2018-09-29T21:26:45.026Z,100.00
2018-09-29T21:29:17.092Z,100.00
2018-09-29T21:31:49.392Z,100.00
2018-09-29T21:34:21.685Z,100.00
2018-09-29T21:36:53.731Z,100.00
2018-09-29T21:39:25.778Z,100.00
2018-09-29T21:41:57.840Z,100.00
2018-09-29T21:44:29.907Z,100.00
2018-09-29T21:47:01.898Z,100.00
2018-09-29T21:49:33.955Z,100.00
2018-09-29T21:52:06.019Z,100.00
2018-09-29T21:54:38.097Z,100.00
2018-09-29T21:57:10.154Z,100.00
2018-09-29T21:59:42.251Z,100.00
2018-09-29T22:02:14.268Z,100.00
2018-09-29T22:04:46.311Z,100.00
2018-09-29T22:07:18.422Z,100.00
2018-09-29T22:09:50.485Z,100.00
2018-09-29T22:12:22.556Z,100.00
2018-09-29T22:14:54.620Z,100.00
2018-09-29T22:17:26.688Z,100.00
2018-09-29T22:19:58.755Z,100.00
2018-09-29T22:22:30.805Z,100.00
2018-09-29T22:25:02.813Z,100.00
2018-09-29T22:27:34.835Z,100.00
2018-09-29T22:30:07.151Z,100.00
2018-09-29T22:32:39.268Z,100.00
2018-09-29T22:35:11.574Z,100.00
2018-09-29T22:37:43.607Z,100.00
2018-09-29T22:40:15.628Z,100.00
2018-09-29T22:42:47.659Z,100.00
2018-09-29T22:45:19.716Z,100.00
2018-09-29T22:47:51.805Z,100.00
2018-09-29T22:50:24.100Z,100.00
2018-09-29T22:52:56.151Z,100.00
2018-09-29T22:55:28.194Z,100.00
2018-09-29T22:58:00.234Z,100.00
2018-09-29T23:00:32.267Z,100.00
2018-09-29T23:03:04.323Z,100.00
2018-09-29T23:05:36.442Z,100.00
2018-09-29T23:08:08.501Z,100.00
2018-09-29T23:10:40.834Z,100.00
2018-09-29T23:13:12.903Z,100.00
2018-09-29T23:15:44.922Z,100.00
2018-09-29T23:18:16.987Z,100.00
2018-09-29T23:20:49.055Z,100.00
2018-09-29T23:23:21.114Z,100.00
2018-09-29T23:25:53.185Z,100.00
2018-09-29T23:28:25.286Z,100.00
2018-09-29T23:30:57.282Z,100.00
2018-09-29T23:33:29.355Z,100.00
2018-09-29T23:36:01.460Z,100.00
2018-09-29T23:38:33.503Z,100.00
2018-09-29T23:41:05.648Z,100.00
2018-09-29T23:43:37.739Z,100.00
2018-09-29T23:46:09.783Z,100.00
2018-09-29T23:48:41.806Z,100.00
2018-09-29T23:51:13.886Z,100.00
2018-09-29T23:53:46.138Z,100.00
2018-09-29T23:56:18.235Z,100.00
2018-09-29T23:58:50.253Z,100.00
